Time;durP1;ratioP1;P1;durP2;ratioP2;P2;SDS_P1;SDS_P2;PMS_P1;PMS_P2;Temp;Humidity;BMP_temperature;BMP_pressure;BME280_temperature;BME280_humidity;BME280_pressure;Samples;Min_cycle;Max_cycle;Signal;HPM_P1;HPM_P2
2021/01/01 00:00:24;;;;;;;65.50;40.90;;;;;;;9.61;53.43;93280.81;5029821;28;21000;-76
2021/01/01 00:02:50;;;;;;;51.13;33.60;;;;;;;9.64;53.05;93296.03;5028097;28;20580;-76
2021/01/01 00:05:16;;;;;;;40.13;26.73;;;;;;;9.56;53.31;93286.97;5038112;28;20052;-76
2021/01/01 00:07:43;;;;;;;40.35;25.30;;;;;;;9.50;52.86;93295.25;5046804;28;20480;-76
2021/01/01 00:10:09;;;;;;;37.75;24.45;;;;;;;9.50;52.93;93303.19;5046986;28;20133;-76
2021/01/01 00:12:36;;;;;;;37.20;25.30;;;;;;;9.45;53.11;93292.72;5035648;28;20040;-76
2021/01/01 00:15:05;;;;;;;42.20;26.05;;;;;;;9.41;52.86;93300.44;5036892;28;20138;-76
2021/01/01 00:17:31;;;;;;;40.95;25.33;;;;;;;9.40;53.22;93303.38;5044678;28;20040;-76
2021/01/01 00:19:56;;;;;;;37.83;25.63;;;;;;;9.29;53.33;93310.69;5045239;28;20052;-76
2021/01/01 00:22:22;;;;;;;41.47;25.77;;;;;;;9.22;53.24;93309.50;5051273;28;20055;-76
2021/01/01 00:24:47;;;;;;;42.67;24.30;;;;;;;9.23;53.38;93317.16;5064620;28;20052;-76
2021/01/01 00:27:13;;;;;;;38.92;24.60;;;;;;;9.19;53.69;93318.78;5072700;28;20123;-76
2021/01/01 00:29:38;;;;;;;33.72;21.70;;;;;;;9.18;53.25;93314.59;5059065;28;20055;-76
2021/01/01 00:32:08;;;;;;;34.67;23.17;;;;;;;9.17;53.55;93313.03;5065384;28;20162;-76
2021/01/01 00:34:33;;;;;;;30.73;21.08;;;;;;;9.12;53.27;93321.81;5060449;28;20039;-76
2021/01/01 00:37:01;;;;;;;36.90;21.05;;;;;;;9.11;53.15;93330.00;5067754;28;20036;-76
2021/01/01 00:39:26;;;;;;;34.70;23.17;;;;;;;9.05;53.35;93320.59;5067819;28;20047;-76
2021/01/01 00:41:52;;;;;;;30.73;19.63;;;;;;;8.98;53.47;93326.28;5050461;28;20047;-76
2021/01/01 00:44:18;;;;;;;29.60;19.83;;;;;;;8.95;53.74;93337.38;5060678;28;20067;-75
2021/01/01 00:46:43;;;;;;;28.00;19.48;;;;;;;8.91;53.89;93325.84;5059477;28;20042;-75
2021/01/01 00:49:09;;;;;;;30.38;20.60;;;;;;;8.92;53.81;93332.69;5049703;28;20029;-76
2021/01/01 00:51:34;;;;;;;32.10;21.13;;;;;;;8.88;53.92;93336.19;5065494;28;20121;-75
2021/01/01 00:54:01;;;;;;;35.38;21.02;;;;;;;8.85;54.50;93342.81;5060410;28;20056;-75
2021/01/01 00:56:28;;;;;;;37.38;24.40;;;;;;;8.83;54.59;93344.97;5066341;28;20496;-75
2021/01/01 00:58:55;;;;;;;42.83;26.85;;;;;;;8.78;54.50;93342.41;5066589;28;20731;-75
2021/01/01 01:01:25;;;;;;;33.25;20.27;;;;;;;8.75;54.65;93337.69;5071555;28;20032;-76
2021/01/01 01:03:52;;;;;;;35.22;22.90;;;;;;;8.72;55.05;93337.50;5058615;28;20416;-75
2021/01/01 01:06:18;;;;;;;28.48;19.48;;;;;;;8.65;54.78;93345.75;5064883;28;20036;-75
2021/01/01 01:08:44;;;;;;;32.00;19.85;;;;;;;8.64;54.63;93349.47;5070204;28;20493;-76
2021/01/01 01:11:10;;;;;;;30.88;19.77;;;;;;;8.62;54.69;93354.25;5062202;28;20060;-76
2021/01/01 01:13:36;;;;;;;34.92;21.27;;;;;;;8.49;54.88;93339.19;5062349;28;20519;-75
2021/01/01 01:16:02;;;;;;;32.50;19.77;;;;;;;8.40;55.09;93351.44;5065170;28;20512;-77
2021/01/01 01:18:28;;;;;;;28.38;18.55;;;;;;;8.39;54.95;93347.22;5060902;28;20040;-75
2021/01/01 01:20:53;;;;;;;26.88;18.83;;;;;;;8.37;55.88;93351.97;5060924;28;20042;-75
2021/01/01 01:23:19;;;;;;;31.33;20.73;;;;;;;8.33;55.19;93353.63;5061145;28;20044;-75
2021/01/01 01:25:45;;;;;;;26.70;18.42;;;;;;;8.33;55.18;93354.41;5057949;28;20114;-75
2021/01/01 01:28:11;;;;;;;25.70;17.33;;;;;;;8.30;55.26;93362.09;5066412;28;20024;-75
2021/01/01 01:30:37;;;;;;;23.27;14.85;;;;;;;8.34;54.77;93363.88;5056580;28;20072;-75
2021/01/01 01:33:03;;;;;;;23.25;16.00;;;;;;;8.30;54.78;93359.47;5065409;28;20092;-76
2021/01/01 01:35:29;;;;;;;23.27;16.10;;;;;;;8.29;54.81;93356.00;5050015;28;20124;-75
2021/01/01 01:37:54;;;;;;;23.88;15.00;;;;;;;8.27;54.92;93358.91;5027241;28;20033;-75
2021/01/01 01:40:20;;;;;;;23.40;15.27;;;;;;;8.27;54.74;93373.94;5052308;28;20489;-76
2021/01/01 01:42:46;;;;;;;30.75;17.58;;;;;;;8.26;55.80;93361.84;5061424;28;20089;-76
2021/01/01 01:45:12;;;;;;;27.13;15.85;;;;;;;8.14;55.03;93361.47;5070196;28;20087;-75
2021/01/01 01:47:39;;;;;;;26.85;17.17;;;;;;;8.07;55.42;93359.19;5046777;28;20048;-76
2021/01/01 01:50:05;;;;;;;22.13;12.88;;;;;;;8.06;55.43;93368.16;5051669;28;20050;-76
2021/01/01 01:52:32;;;;;;;18.38;10.52;;;;;;;8.08;54.89;93366.03;5051316;28;20070;-76
2021/01/01 01:54:58;;;;;;;19.67;11.73;;;;;;;8.12;54.70;93372.28;5049593;28;20051;-75
2021/01/01 01:57:26;;;;;;;17.48;11.07;;;;;;;8.09;54.82;93372.84;5046481;28;20060;-75
2021/01/01 01:59:55;;;;;;;28.80;14.93;;;;;;;8.11;55.76;93362.81;5044249;28;20048;-75
2021/01/01 02:02:22;;;;;;;20.13;12.88;;;;;;;8.17;56.00;93380.13;5045610;28;20089;-76
2021/01/01 02:04:48;;;;;;;14.20;8.32;;;;;;;8.11;54.68;93383.13;5048383;28;20028;-75
2021/01/01 02:07:14;;;;;;;14.35;8.50;;;;;;;8.24;54.56;93371.88;5050409;28;20044;-75
2021/01/01 02:09:40;;;;;;;13.63;9.05;;;;;;;8.34;54.57;93378.88;5038352;28;20508;-75
2021/01/01 02:12:07;;;;;;;16.00;8.68;;;;;;;8.41;54.53;93379.28;4968103;28;20073;-75
2021/01/01 02:14:33;;;;;;;16.23;8.50;;;;;;;8.46;53.90;93371.31;5033273;28;20044;-75
2021/01/01 02:16:58;;;;;;;22.90;13.20;;;;;;;8.54;55.53;93378.59;5048463;28;20028;-75
2021/01/01 02:19:24;;;;;;;20.17;14.13;;;;;;;8.65;55.16;93387.91;5053845;28;20036;-75
2021/01/01 02:21:49;;;;;;;18.48;11.88;;;;;;;8.69;54.39;93376.53;5048965;28;20089;-76
2021/01/01 02:24:15;;;;;;;34.38;21.52;;;;;;;8.81;55.52;93378.72;5046802;28;20051;-75
2021/01/01 02:26:41;;;;;;;28.60;17.85;;;;;;;8.83;55.04;93389.75;5048454;28;20470;-75
2021/01/01 02:29:06;;;;;;;30.77;19.48;;;;;;;8.67;55.69;93383.13;5050399;28;20471;-75
2021/01/01 02:31:32;;;;;;;34.33;20.38;;;;;;;8.70;56.22;93375.44;5053376;28;20507;-75
2021/01/01 02:33:58;;;;;;;31.33;20.33;;;;;;;8.75;56.91;93389.63;5049432;28;20353;-74
2021/01/01 02:36:23;;;;;;;36.35;19.48;;;;;;;8.77;57.40;93384.84;5044188;28;20048;-75
2021/01/01 02:38:49;;;;;;;32.78;18.13;;;;;;;8.80;57.29;93389.53;5051182;28;20116;-75
2021/01/01 02:41:14;;;;;;;31.63;20.23;;;;;;;8.84;57.61;93401.06;5047192;28;20094;-75
2021/01/01 02:43:40;;;;;;;35.55;21.10;;;;;;;8.95;57.03;93405.88;5053545;28;20488;-75
2021/01/01 02:46:06;;;;;;;33.45;20.63;;;;;;;8.96;57.20;93402.19;5053149;28;20048;-75
2021/01/01 02:48:31;;;;;;;40.70;23.45;;;;;;;8.98;56.83;93397.44;5050909;28;20042;-75
2021/01/01 02:50:57;;;;;;;40.63;23.52;;;;;;;9.03;56.59;93399.97;5046434;28;20047;-75
2021/01/01 02:53:22;;;;;;;29.95;21.08;;;;;;;9.09;56.80;93400.66;5048351;28;20045;-75
2021/01/01 02:55:48;;;;;;;35.42;21.00;;;;;;;9.05;57.02;93400.47;5053072;28;20058;-75
2021/01/01 02:58:14;;;;;;;30.25;20.80;;;;;;;9.08;56.96;93399.91;5054113;28;20690;-75
2021/01/01 03:00:57;;;;;;;31.88;20.55;;;;;;;9.07;56.69;93403.59;5053177;28;20040;-75
2021/01/01 03:03:22;;;;;;;32.45;18.73;;;;;;;9.05;57.17;93408.38;5050700;28;20041;-75
2021/01/01 03:05:48;;;;;;;33.78;20.05;;;;;;;9.13;56.74;93409.59;5027024;28;20055;-75
2021/01/01 03:08:13;;;;;;;32.50;20.83;;;;;;;9.13;57.26;93405.09;5046198;28;20127;-77
2021/01/01 03:10:39;;;;;;;29.92;18.70;;;;;;;9.17;58.03;93401.88;5052660;28;20032;-75
2021/01/01 03:13:05;;;;;;;27.27;18.90;;;;;;;9.17;57.27;93399.22;5050371;28;20119;-75
2021/01/01 03:15:30;;;;;;;28.58;19.38;;;;;;;9.15;58.26;93402.16;5048625;28;20048;-76
2021/01/01 03:17:56;;;;;;;25.23;17.30;;;;;;;9.17;58.50;93399.22;5051947;28;20096;-76
2021/01/01 03:20:22;;;;;;;26.63;17.92;;;;;;;9.18;58.50;93388.41;5047284;28;20095;-76
2021/01/01 03:22:47;;;;;;;30.70;17.75;;;;;;;9.18;59.09;93401.59;5049278;28;20651;-76
2021/01/01 03:25:13;;;;;;;30.23;18.10;;;;;;;9.17;58.97;93409.78;5051934;28;20028;-77
2021/01/01 03:27:38;;;;;;;29.63;18.95;;;;;;;9.23;58.91;93411.25;5049635;28;20037;-75
2021/01/01 03:30:07;;;;;;;29.95;19.27;;;;;;;9.22;58.79;93412.34;5051993;28;20055;-75
2021/01/01 03:32:33;;;;;;;32.30;18.45;;;;;;;9.26;58.98;93411.47;5048912;28;20041;-75
2021/01/01 03:34:59;;;;;;;28.75;18.60;;;;;;;9.24;58.53;93413.59;5052479;28;20032;-76
2021/01/01 03:37:24;;;;;;;30.42;19.05;;;;;;;9.21;58.41;93408.13;5052205;28;20988;-75
2021/01/01 03:39:50;;;;;;;26.48;17.13;;;;;;;9.20;58.79;93411.81;5065491;28;20583;-75
2021/01/01 03:42:16;;;;;;;26.38;17.58;;;;;;;9.12;58.94;93394.84;5050997;28;20044;-75
2021/01/01 03:44:41;;;;;;;31.52;18.65;;;;;;;9.10;59.30;93397.75;5051626;28;20044;-76
2021/01/01 03:47:07;;;;;;;30.88;19.38;;;;;;;9.16;59.21;93405.56;5053241;28;20568;-76
2021/01/01 03:49:33;;;;;;;33.22;22.23;;;;;;;9.13;59.50;93407.72;5056771;28;20040;-76
2021/01/01 03:51:59;;;;;;;35.90;20.20;;;;;;;8.93;59.94;93389.59;5055715;28;20042;-75
2021/01/01 03:54:24;;;;;;;32.05;21.58;;;;;;;8.93;59.20;93397.50;5052697;28;20029;-75
2021/01/01 03:56:50;;;;;;;29.52;17.83;;;;;;;8.88;58.76;93410.75;5057600;28;20041;-75
2021/01/01 03:59:15;;;;;;;28.70;17.42;;;;;;;8.82;58.65;93404.00;5051021;28;20044;-75
2021/01/01 04:01:41;;;;;;;31.20;18.50;;;;;;;8.68;59.65;93400.53;5049338;28;20468;-76
2021/01/01 04:04:06;;;;;;;30.58;16.23;;;;;;;8.73;58.87;93413.63;5071914;28;20496;-75
2021/01/01 04:06:32;;;;;;;31.70;16.38;;;;;;;8.66;58.77;93413.19;5059556;28;20106;-76
2021/01/01 04:08:57;;;;;;;31.65;16.02;;;;;;;8.61;58.95;93415.88;5056806;28;20037;-75
2021/01/01 04:11:23;;;;;;;22.65;14.82;;;;;;;8.54;58.86;93426.78;5059817;28;20043;-75
2021/01/01 04:13:48;;;;;;;17.90;10.77;;;;;;;8.42;57.55;93425.63;5072888;28;20026;-75
2021/01/01 04:16:14;;;;;;;19.90;11.65;;;;;;;8.39;58.24;93436.75;5077919;28;20069;-75
2021/01/01 04:18:39;;;;;;;16.92;10.20;;;;;;;8.32;57.61;93433.66;5071855;28;20032;-75
2021/01/01 04:21:08;;;;;;;17.40;9.95;;;;;;;8.26;58.05;93433.69;5056055;28;20052;-75
2021/01/01 04:23:36;;;;;;;13.23;10.38;;;;;;;8.18;58.08;93436.97;5053036;28;20553;-75
2021/01/01 04:26:03;;;;;;;19.33;10.38;;;;;;;8.05;58.09;93432.38;5055720;28;20036;-75
2021/01/01 04:28:29;;;;;;;16.77;9.93;;;;;;;8.03;58.19;93442.41;5058706;28;20118;-75
2021/01/01 04:30:54;;;;;;;17.42;9.18;;;;;;;7.98;58.55;93450.34;5054419;28;20822;-75
2021/01/01 04:33:20;;;;;;;14.18;8.25;;;;;;;7.97;58.13;93454.03;5053189;28;20524;-75
2021/01/01 04:35:45;;;;;;;21.20;10.30;;;;;;;7.90;58.09;93442.28;5055199;28;20700;-76
2021/01/01 04:38:11;;;;;;;14.73;9.75;;;;;;;7.96;58.44;93451.72;5051442;28;20501;-75
2021/01/01 04:40:37;;;;;;;18.25;9.82;;;;;;;7.91;58.36;93447.28;5075024;28;20081;-75
2021/01/01 04:43:03;;;;;;;15.02;10.15;;;;;;;7.84;58.42;93441.56;5052493;28;20032;-75
2021/01/01 04:45:29;;;;;;;19.65;12.15;;;;;;;7.62;60.23;93452.59;5053937;28;20040;-75
2021/01/01 04:47:54;;;;;;;18.33;10.02;;;;;;;7.58;61.43;93442.88;5054575;28;20041;-75
2021/01/01 04:50:20;;;;;;;16.67;10.52;;;;;;;7.60;61.17;93441.56;5053890;28;20052;-75
2021/01/01 04:52:49;;;;;;;21.02;12.13;;;;;;;7.66;61.64;93453.59;5054101;28;20093;-75
2021/01/01 04:55:16;;;;;;;17.98;10.05;;;;;;;7.63;60.64;93443.63;5055742;28;20024;-75
2021/01/01 04:57:41;;;;;;;17.08;10.57;;;;;;;7.67;60.45;93449.88;5051561;28;20416;-75
2021/01/01 05:00:08;;;;;;;16.58;9.30;;;;;;;7.64;60.03;93454.91;5055132;28;20480;-75
2021/01/01 05:02:33;;;;;;;14.73;9.02;;;;;;;7.64;59.44;93452.28;5069685;28;20083;-75
2021/01/01 05:04:59;;;;;;;13.07;8.88;;;;;;;7.68;59.69;93469.06;5053042;28;21061;-75
2021/01/01 05:07:26;;;;;;;16.63;8.57;;;;;;;7.67;59.29;93468.28;5058458;28;20021;-75
2021/01/01 05:09:52;;;;;;;14.00;8.68;;;;;;;7.64;59.28;93470.69;5052123;28;20032;-75
2021/01/01 05:12:17;;;;;;;14.55;8.05;;;;;;;7.62;58.67;93472.84;5053919;28;20068;-75
2021/01/01 05:14:43;;;;;;;16.02;7.80;;;;;;;7.58;58.42;93477.84;5053130;28;20060;-75
2021/01/01 05:17:09;;;;;;;15.35;8.90;;;;;;;7.51;58.74;93480.03;5054871;28;20110;-75
2021/01/01 05:19:39;;;;;;;15.68;8.70;;;;;;;7.53;58.87;93488.41;5057511;28;20111;-75
2021/01/01 05:22:10;;;;;;;12.52;8.75;;;;;;;7.46;59.00;93490.59;5051455;28;20101;-75
2021/01/01 05:24:39;;;;;;;13.70;9.05;;;;;;;7.38;59.33;93489.31;5056170;28;20523;-75
2021/01/01 05:27:13;;;;;;;16.70;10.30;;;;;;;7.29;59.43;93482.31;5052421;28;20442;-75
2021/01/01 05:29:55;;;;;;;17.58;10.95;;;;;;;7.26;60.22;93488.91;5071261;28;20563;-76
2021/01/01 05:32:25;;;;;;;10.00;6.63;;;;;;;7.18;59.95;93486.88;5051078;28;20127;-75
2021/01/01 05:34:52;;;;;;;10.27;6.47;;;;;;;7.17;59.24;93492.41;5053307;28;20676;-75
2021/01/01 05:37:34;;;;;;;10.15;5.97;;;;;;;7.17;59.04;93503.69;5054983;28;20131;-75
2021/01/01 05:40:04;;;;;;;9.43;6.32;;;;;;;7.14;59.04;93506.84;5053672;28;20378;-75
2021/01/01 05:42:30;;;;;;;9.98;6.28;;;;;;;7.09;59.10;93506.88;5051598;28;20044;-75
2021/01/01 05:44:56;;;;;;;12.52;6.68;;;;;;;7.08;59.07;93505.34;5054921;28;20039;-76
2021/01/01 05:47:22;;;;;;;15.80;10.45;;;;;;;7.11;59.57;93511.88;5049490;28;20060;-75
2021/01/01 05:49:47;;;;;;;20.52;10.18;;;;;;;7.12;60.11;93510.84;5044615;28;20032;-76
2021/01/01 05:52:16;;;;;;;15.13;10.40;;;;;;;7.16;59.70;93522.34;5071998;28;20473;-75
2021/01/01 05:54:48;;;;;;;25.38;14.93;;;;;;;7.14;60.62;93530.50;5072521;28;20048;-75
2021/01/01 05:57:15;;;;;;;25.00;15.55;;;;;;;7.07;61.30;93527.41;5074231;28;20047;-75
2021/01/01 05:59:45;;;;;;;19.50;11.93;;;;;;;6.94;61.75;93535.88;5071714;28;20028;-75
2021/01/01 06:02:12;;;;;;;18.90;12.25;;;;;;;6.98;61.88;93531.69;5072371;28;20052;-75
2021/01/01 06:04:39;;;;;;;15.77;10.38;;;;;;;6.96;61.66;93533.78;5075091;28;20094;-75
2021/01/01 06:07:09;;;;;;;17.35;12.90;;;;;;;6.81;61.60;93536.50;5074598;28;20064;-75
2021/01/01 06:09:35;;;;;;;14.30;8.23;;;;;;;6.83;61.64;93537.81;5070358;28;20052;-75
2021/01/01 06:12:08;;;;;;;14.07;9.40;;;;;;;6.87;61.01;93546.72;5073631;28;20539;-75
2021/01/01 06:14:44;;;;;;;18.40;11.68;;;;;;;6.82;62.02;93552.00;5071215;28;20048;-75
2021/01/01 06:17:10;;;;;;;18.80;10.45;;;;;;;6.88;61.73;93558.00;5052721;28;20048;-75
2021/01/01 06:19:57;;;;;;;17.35;10.25;;;;;;;6.88;61.48;93552.75;5054840;28;20028;-75
2021/01/01 06:22:25;;;;;;;17.80;8.50;;;;;;;6.91;60.92;93552.19;5071845;28;20084;-75
2021/01/01 06:24:51;;;;;;;15.60;9.88;;;;;;;6.94;60.84;93552.44;5070652;28;20568;-75
2021/01/01 06:27:19;;;;;;;17.25;9.98;;;;;;;6.92;60.60;93548.53;5072337;28;20086;-75
2021/01/01 06:29:48;;;;;;;18.23;10.63;;;;;;;6.96;60.91;93560.84;5073032;28;20054;-75
2021/01/01 06:32:18;;;;;;;16.08;9.60;;;;;;;6.89;61.13;93552.47;5069777;28;20131;-75
2021/01/01 06:34:43;;;;;;;19.42;11.68;;;;;;;6.92;61.76;93564.28;5074485;28;20024;-75
2021/01/01 06:37:42;;;;;;;19.65;12.68;;;;;;;6.91;61.97;93574.00;5071465;28;20054;-75
2021/01/01 06:40:35;;;;;;;23.80;13.60;;;;;;;6.85;62.34;93571.66;5071985;28;20055;-75
2021/01/01 06:43:06;;;;;;;19.45;10.88;;;;;;;6.84;61.99;93576.13;5055125;28;20685;-75
2021/01/01 06:45:43;;;;;;;21.13;10.23;;;;;;;6.84;61.77;93581.38;5073861;28;20051;-75
2021/01/01 06:48:18;;;;;;;16.98;9.95;;;;;;;6.88;61.50;93576.41;5071030;28;20044;-75
2021/01/01 06:50:44;;;;;;;;;;;;;;;6.92;61.48;93590.56;5055780;28;20126;-75
2021/01/01 06:53:12;;;;;;;14.65;8.90;;;;;;;6.91;61.36;93586.34;5068954;28;19923;-75
2021/01/01 06:55:38;;;;;;;15.63;10.20;;;;;;;6.99;61.31;93588.41;5075258;28;20031;-75
2021/01/01 06:58:05;;;;;;;42.65;24.40;;;;;;;7.04;61.01;93588.38;5070924;28;20119;-75
2021/01/01 07:00:45;;;;;;;108.47;56.83;;;;;;;7.14;60.64;93588.31;5068237;28;20449;-76
2021/01/01 07:03:29;;;;;;;43.35;32.53;;;;;;;7.18;60.28;93594.63;5071704;28;20039;-75
2021/01/01 07:05:57;;;;;;;16.52;12.82;;;;;;;7.26;60.33;93601.94;5057854;28;20464;-75
2021/01/01 07:08:41;;;;;;;23.48;16.33;;;;;;;7.30;60.37;93592.44;5070628;28;20090;-75
2021/01/01 07:11:12;;;;;;;17.10;9.48;;;;;;;7.42;60.04;93599.19;5073329;28;20048;-76
2021/01/01 07:13:42;;;;;;;18.05;10.35;;;;;;;7.47;60.08;93613.09;5075988;28;20023;-76
2021/01/01 07:16:08;;;;;;;18.58;10.77;;;;;;;7.61;59.95;93597.50;5050357;28;20968;-75
2021/01/01 07:18:33;;;;;;;21.85;13.82;;;;;;;7.67;59.87;93604.28;5074664;28;20512;-75
2021/01/01 07:21:10;;;;;;;19.02;12.13;;;;;;;7.72;60.34;93606.88;5072323;28;20130;-76
2021/01/01 07:23:36;;;;;;;38.45;22.92;;;;;;;7.84;59.94;93607.28;5065781;28;21258;-75
2021/01/01 07:26:03;;;;;;;31.35;19.23;;;;;;;7.89;59.55;93609.88;5070231;28;20048;-75
2021/01/01 07:28:28;;;;;;;33.38;20.10;;;;;;;7.98;59.24;93608.22;5071968;28;20047;-75
2021/01/01 07:30:55;;;;;;;35.13;20.00;;;;;;;8.05;59.46;93603.44;5069782;28;20628;-75
2021/01/01 07:33:26;;;;;;;29.02;19.02;;;;;;;8.18;59.38;93602.78;5071137;28;20412;-75
2021/01/01 07:35:57;;;;;;;31.05;19.55;;;;;;;8.25;59.33;93608.53;5071584;28;20129;-75
2021/01/01 07:38:24;;;;;;;34.65;20.25;;;;;;;8.30;59.49;93620.88;5070827;28;20040;-75
2021/01/01 07:40:50;;;;;;;56.92;27.23;;;;;;;8.35;59.77;93618.19;5073926;28;20468;-75
2021/01/01 07:43:16;;;;;;;40.05;23.65;;;;;;;8.39;59.70;93627.09;5073387;28;20499;-75
2021/01/01 07:45:42;;;;;;;45.88;26.92;;;;;;;8.41;59.51;93626.81;5073121;28;20547;-75
2021/01/01 07:48:08;;;;;;;41.65;24.98;;;;;;;8.47;59.54;93630.97;5071766;28;20101;-75
2021/01/01 07:50:35;;;;;;;49.50;29.67;;;;;;;8.46;59.79;93624.13;5069454;28;20048;-75
2021/01/01 07:53:04;;;;;;;46.53;30.40;;;;;;;8.55;59.71;93633.00;5070913;28;20032;-75
2021/01/01 07:55:31;;;;;;;42.83;27.67;;;;;;;8.50;59.82;93625.16;5072334;28;20594;-76
2021/01/01 07:58:01;;;;;;;39.67;25.38;;;;;;;8.64;59.82;93636.59;5049635;28;20044;-76
2021/01/01 08:00:30;;;;;;;45.83;27.05;;;;;;;8.76;59.38;93638.81;5072155;28;20032;-76
2021/01/01 08:02:56;;;;;;;42.72;26.65;;;;;;;8.80;58.97;93627.44;5051705;28;20127;-76
2021/01/01 08:05:22;;;;;;;36.92;24.40;;;;;;;8.79;58.87;93646.97;5054564;28;20089;-75
2021/01/01 08:07:47;;;;;;;38.03;24.10;;;;;;;8.87;58.60;93650.81;5072866;28;20028;-75
2021/01/01 08:10:13;;;;;;;37.05;24.02;;;;;;;8.91;58.61;93649.19;5053169;28;20103;-75
2021/01/01 08:12:48;;;;;;;36.45;22.08;;;;;;;8.96;58.57;93655.19;5051338;28;20040;-75
2021/01/01 08:15:26;;;;;;;39.88;24.55;;;;;;;8.98;58.46;93660.19;5053350;28;20499;-76
2021/01/01 08:17:51;;;;;;;35.03;22.45;;;;;;;9.00;58.07;93655.41;5053840;28;20047;-75
2021/01/01 08:20:17;;;;;;;34.83;21.77;;;;;;;9.00;57.53;93650.13;5050672;28;20036;-75
2021/01/01 08:22:45;;;;;;;34.13;22.67;;;;;;;9.16;57.22;93664.72;5052836;28;20068;-75
2021/01/01 08:25:11;;;;;;;42.10;22.88;;;;;;;9.24;56.95;93665.91;5051712;28;20043;-75
2021/01/01 08:27:45;;;;;;;33.53;21.35;;;;;;;9.32;56.82;93657.41;5051333;28;20049;-76
2021/01/01 08:30:11;;;;;;;33.20;22.88;;;;;;;9.42;56.98;93670.47;5013796;28;20061;-75
2021/01/01 08:32:39;;;;;;;33.00;22.55;;;;;;;9.53;56.55;93653.41;5045476;28;20076;-75
2021/01/01 08:35:08;;;;;;;38.58;22.42;;;;;;;9.75;56.08;93666.03;5050841;28;20481;-76
2021/01/01 08:37:33;;;;;;;36.22;22.42;;;;;;;9.89;55.51;93662.38;5057153;28;20469;-75
2021/01/01 08:40:09;;;;;;;41.75;24.65;;;;;;;10.12;54.79;93675.75;5051269;28;20082;-75
2021/01/01 08:42:39;;;;;;;34.30;20.35;;;;;;;10.18;54.42;93672.00;5051616;28;20049;-76
2021/01/01 08:45:07;;;;;;;37.28;22.85;;;;;;;10.41;53.81;93668.44;5056069;28;20101;-76
2021/01/01 08:47:48;;;;;;;37.30;19.85;;;;;;;10.62;52.92;93672.31;5051730;28;20058;-76
2021/01/01 08:50:24;;;;;;;32.42;18.42;;;;;;;10.83;52.44;93676.19;5055521;28;20048;-75
2021/01/01 08:53:01;;;;;;;28.23;17.42;;;;;;;10.99;51.69;93665.31;5052936;28;20019;-76
2021/01/01 08:55:28;;;;;;;28.50;18.10;;;;;;;11.12;51.03;93667.97;5055862;28;20595;-76
2021/01/01 08:58:14;;;;;;;27.55;18.30;;;;;;;11.37;51.14;93674.59;5056210;28;20032;-76
2021/01/01 09:00:42;;;;;;;27.08;17.67;;;;;;;11.42;50.93;93665.78;5052732;28;20997;-75
2021/01/01 09:03:08;;;;;;;25.73;19.08;;;;;;;11.45;50.54;93665.19;5055473;28;20044;-76
2021/01/01 09:05:34;;;;;;;25.08;16.73;;;;;;;11.51;49.67;93664.78;5068475;28;20086;-76
2021/01/01 09:08:10;;;;;;;25.50;16.75;;;;;;;11.65;49.48;93670.84;5055558;28;20051;-75
2021/01/01 09:10:37;;;;;;;25.38;17.25;;;;;;;11.75;49.11;93669.06;5054253;28;20059;-75
2021/01/01 09:13:16;;;;;;;26.70;18.25;;;;;;;11.89;49.34;93661.88;5053752;28;20039;-76
2021/01/01 09:15:42;;;;;;;22.25;14.73;;;;;;;11.94;48.37;93670.47;5051761;28;20051;-76
2021/01/01 09:18:08;;;;;;;28.13;16.88;;;;;;;12.09;47.26;93672.00;5056220;28;20036;-76
2021/01/01 09:20:46;;;;;;;26.80;17.10;;;;;;;12.29;47.19;93671.53;5050066;28;20151;-76
2021/01/01 09:23:12;;;;;;;28.50;17.77;;;;;;;12.48;46.67;93676.63;5053134;28;20592;-76
2021/01/01 09:25:40;;;;;;;27.48;18.67;;;;;;;12.65;46.51;93668.78;5057992;28;20063;-75
2021/01/01 09:28:10;;;;;;;26.73;17.50;;;;;;;12.82;45.87;93678.69;5053575;28;20036;-76
2021/01/01 09:30:36;;;;;;;29.10;16.48;;;;;;;12.95;45.75;93675.19;5055116;28;20056;-76
2021/01/01 09:33:03;;;;;;;29.23;19.88;;;;;;;13.04;46.39;93668.03;5055613;28;20040;-76
2021/01/01 09:35:30;;;;;;;27.63;19.08;;;;;;;13.26;46.08;93670.63;5061038;28;20527;-76
2021/01/01 09:38:03;;;;;;;31.52;20.80;;;;;;;13.36;45.42;93675.66;5048126;28;20031;-76
2021/01/01 09:40:31;;;;;;;30.25;20.05;;;;;;;13.49;45.25;93678.53;5054453;28;20032;-76
2021/01/01 09:43:00;;;;;;;42.80;25.05;;;;;;;13.60;45.26;93674.47;5049164;28;20049;-76
2021/01/01 09:45:26;;;;;;;29.98;19.13;;;;;;;13.67;45.47;93675.59;5050973;28;20048;-76
2021/01/01 09:47:51;;;;;;;37.20;25.35;;;;;;;13.68;45.16;93679.03;5051977;28;20055;-76
2021/01/01 09:50:17;;;;;;;33.25;21.98;;;;;;;13.76;44.36;93679.03;5051971;28;20044;-76
2021/01/01 09:52:42;;;;;;;30.25;20.92;;;;;;;13.87;44.32;93668.88;5055087;28;20040;-76
2021/01/01 09:55:08;;;;;;;36.70;22.02;;;;;;;13.87;43.91;93676.84;5072148;28;20036;-76
2021/01/01 09:57:41;;;;;;;29.08;19.88;;;;;;;14.02;43.73;93667.66;5052443;28;20564;-76
2021/01/01 10:00:11;;;;;;;32.08;21.60;;;;;;;14.10;43.60;93667.66;5046232;28;20124;-76
2021/01/01 10:02:38;;;;;;;33.13;21.55;;;;;;;14.13;43.58;93668.88;5044495;28;20050;-76
2021/01/01 10:05:05;;;;;;;32.78;21.70;;;;;;;14.20;43.96;93661.22;5048183;28;20048;-76
2021/01/01 10:07:31;;;;;;;32.63;22.13;;;;;;;14.10;43.30;93662.31;5051929;28;20035;-76
2021/01/01 10:09:57;;;;;;;31.65;21.30;;;;;;;14.07;42.89;93656.88;5043652;28;20036;-76
2021/01/01 10:12:23;;;;;;;29.83;20.35;;;;;;;14.18;42.88;93668.72;5046211;28;20036;-76
2021/01/01 10:14:54;;;;;;;34.05;21.50;;;;;;;14.29;42.92;93660.13;5047262;28;20040;-76
2021/01/01 10:17:22;;;;;;;31.50;20.50;;;;;;;14.43;42.66;93661.84;5047282;28;20121;-76
2021/01/01 10:19:47;;;;;;;37.28;23.38;;;;;;;14.55;42.25;93662.00;5047462;28;20469;-76
2021/01/01 10:22:13;;;;;;;24.73;17.35;;;;;;;14.51;41.99;93653.09;5047662;28;20119;-76
2021/01/01 10:24:38;;;;;;;27.90;18.48;;;;;;;14.61;42.15;93652.78;5047453;28;20044;-76
2021/01/01 10:27:04;;;;;;;26.38;16.67;;;;;;;14.77;41.80;93648.47;5042258;28;20139;-76
2021/01/01 10:29:29;;;;;;;28.25;18.02;;;;;;;14.88;40.93;93647.03;5047277;28;20136;-76
2021/01/01 10:32:01;;;;;;;27.40;17.00;;;;;;;14.84;40.32;93640.81;5048402;28;20047;-76
2021/01/01 10:34:27;;;;;;;26.17;16.95;;;;;;;14.94;40.35;93643.13;5047502;28;20611;-76
2021/01/01 10:36:53;;;;;;;22.65;14.43;;;;;;;15.06;40.15;93639.78;5045231;28;20037;-77
2021/01/01 10:39:19;;;;;;;23.08;14.57;;;;;;;15.17;39.42;93625.00;5044773;28;20047;-76
2021/01/01 10:41:47;;;;;;;19.45;14.27;;;;;;;15.32;39.54;93629.78;5044552;28;20049;-76
2021/01/01 10:44:12;;;;;;;22.80;15.35;;;;;;;15.45;40.46;93630.66;5046540;28;20041;-76
2021/01/01 10:46:38;;;;;;;24.00;13.85;;;;;;;15.60;39.13;93627.44;5046516;28;20597;-76
2021/01/01 10:49:03;;;;;;;18.95;13.32;;;;;;;15.72;38.58;93619.56;5048660;28;20136;-76
2021/01/01 10:51:28;;;;;;;19.83;11.93;;;;;;;15.88;38.51;93609.09;5043623;28;20047;-76
2021/01/01 10:53:54;;;;;;;19.42;12.85;;;;;;;16.01;38.43;93606.16;5049418;28;20053;-76
2021/01/01 10:56:24;;;;;;;15.15;9.80;;;;;;;16.07;37.67;93598.75;5043773;28;20060;-77
2021/01/01 10:58:50;;;;;;;20.63;11.48;;;;;;;16.11;37.57;93602.31;5046208;28;20029;-76
2021/01/01 11:01:22;;;;;;;16.83;9.27;;;;;;;16.07;37.68;93604.09;5044843;28;20211;-77
2021/01/01 11:03:49;;;;;;;15.15;9.68;;;;;;;16.23;37.43;93598.91;5039455;28;21025;-76
2021/01/01 11:06:15;;;;;;;11.40;7.93;;;;;;;16.35;37.13;93594.41;5051091;28;20068;-76
2021/01/01 11:08:42;;;;;;;17.80;10.75;;;;;;;16.47;36.64;93596.31;5045114;28;20387;-76
2021/01/01 11:11:13;;;;;;;20.08;9.75;;;;;;;16.48;36.38;93598.66;5046794;28;20906;-76
2021/01/01 11:13:48;;;;;;;19.83;10.05;;;;;;;16.43;35.66;93596.19;5047729;28;20041;-76
2021/01/01 12:22:30;;;;;;;14.15;7.20;;;;;;;15.51;36.01;93608.09;5051431;28;20466;-76
2021/01/01 12:24:56;;;;;;;12.00;8.25;;;;;;;15.38;35.85;93620.53;5068233;28;20040;-76
2021/01/01 12:27:29;;;;;;;15.63;9.80;;;;;;;15.42;36.87;93624.09;5071550;28;20032;-76
2021/01/01 12:29:55;;;;;;;14.90;10.35;;;;;;;15.46;37.20;93621.56;5068382;28;20036;-76
2021/01/01 12:32:21;;;;;;;11.82;6.90;;;;;;;15.42;36.42;93623.31;5062145;28;20082;-76